createdAt,value
2017-10-15T00:00:40.794Z,23.05
2017-10-15T00:01:50.114Z,23.01
2017-10-15T00:02:59.094Z,23.01
2017-10-15T00:04:08.756Z,23.05
2017-10-15T00:05:18.059Z,23.09
2017-10-15T00:06:26.708Z,23.01
2017-10-15T00:07:36.018Z,23.07
2017-10-15T00:08:45.660Z,23.01
2017-10-15T00:09:54.633Z,23.02
2017-10-15T00:11:03.625Z,23.01
2017-10-15T00:12:13.257Z,23.07
2017-10-15T00:13:21.918Z,23.01
2017-10-15T00:14:30.596Z,23
2017-10-15T00:15:39.577Z,22.97
2017-10-15T00:16:48.562Z,23.01
2017-10-15T00:17:57.214Z,22.97
2017-10-15T00:19:05.925Z,23
2017-10-15T00:20:14.577Z,22.97
2017-10-15T00:21:23.562Z,22.97
2017-10-15T00:22:32.555Z,23
2017-10-15T00:23:41.859Z,23.02
2017-10-15T00:24:50.513Z,22.97
2017-10-15T00:25:59.816Z,23
2017-10-15T00:27:08.497Z,23.01
2017-10-15T00:28:17.474Z,22.97
2017-10-15T00:29:26.787Z,23
2017-10-15T00:30:35.760Z,23
2017-10-15T00:31:44.740Z,23.01
2017-10-15T00:32:53.392Z,23.01
2017-10-15T00:34:02.055Z,23.02
2017-10-15T00:35:11.370Z,23.04
2017-10-15T00:36:20.387Z,22.95
2017-10-15T00:37:29.035Z,22.94
2017-10-15T00:38:37.760Z,22.92
2017-10-15T00:39:46.751Z,22.97
2017-10-15T00:40:55.389Z,22.95
2017-10-15T00:42:04.046Z,22.86
2017-10-15T00:43:12.700Z,22.98
2017-10-15T00:44:21.362Z,22.98
2017-10-15T00:45:30.992Z,22.97
2017-10-15T00:46:39.639Z,22.94
2017-10-15T00:47:48.966Z,22.9
2017-10-15T00:48:57.949Z,22.97
2017-10-15T00:50:06.918Z,22.91
2017-10-15T00:51:15.571Z,22.9
2017-10-15T00:52:24.884Z,22.97
2017-10-15T00:53:34.251Z,22.94
2017-10-15T00:54:43.590Z,22.97
2017-10-15T00:55:52.576Z,22.92
2017-10-15T00:57:02.216Z,22.95
2017-10-15T00:58:10.868Z,22.92
2017-10-15T00:59:19.856Z,22.92
2017-10-15T01:00:28.522Z,22.92
2017-10-15T01:01:37.181Z,22.94
2017-10-15T01:02:46.510Z,22.9
2017-10-15T01:03:55.162Z,22.94
2017-10-15T01:05:04.146Z,22.94
2017-10-15T01:06:13.778Z,22.97
2017-10-15T01:07:22.428Z,22.92
2017-10-15T01:08:31.743Z,22.95
2017-10-15T01:09:40.409Z,22.98
2017-10-15T01:10:49.717Z,22.92
2017-10-15T01:11:58.694Z,22.88
2017-10-15T01:13:08.327Z,22.9
2017-10-15T01:14:17.323Z,22.9
2017-10-15T01:15:26.041Z,22.91
2017-10-15T01:16:35.011Z,22.92
2017-10-15T01:17:44.358Z,22.92
2017-10-15T01:18:53.014Z,22.95
2017-10-15T01:20:02.312Z,22.91
2017-10-15T01:21:11.619Z,22.9
2017-10-15T01:22:20.603Z,22.9
2017-10-15T01:23:29.617Z,22.92
2017-10-15T01:24:38.603Z,22.85
2017-10-15T01:25:47.270Z,22.86
2017-10-15T01:26:56.573Z,22.86
2017-10-15T01:28:06.218Z,22.9
2017-10-15T01:29:15.212Z,22.86
2017-10-15T01:30:24.543Z,22.85
2017-10-15T01:31:33.854Z,22.88
2017-10-15T01:32:43.176Z,22.9
2017-10-15T01:33:51.830Z,22.92
2017-10-15T01:35:00.498Z,22.9
2017-10-15T01:36:09.158Z,22.86
2017-10-15T01:37:18.457Z,22.86
2017-10-15T01:38:28.451Z,22.85
2017-10-15T01:39:37.536Z,22.92
2017-10-15T01:40:46.835Z,22.86
2017-10-15T01:41:56.196Z,22.91
2017-10-15T01:43:05.182Z,22.83
2017-10-15T01:44:14.912Z,22.85
2017-10-15T01:45:24.593Z,22.88
2017-10-15T01:46:33.272Z,22.86
2017-10-15T01:47:42.579Z,22.83
2017-10-15T01:48:51.902Z,22.88
2017-10-15T01:50:01.272Z,22.91
2017-10-15T01:51:10.272Z,22.88
2017-10-15T01:52:19.288Z,22.85
2017-10-15T01:53:27.950Z,22.88
2017-10-15T01:54:37.263Z,22.85
2017-10-15T01:55:46.929Z,22.85
2017-10-15T01:56:56.261Z,22.86
2017-10-15T01:58:04.906Z,22.85
2017-10-15T01:59:13.911Z,22.83
2017-10-15T02:00:23.253Z,22.86
2017-10-15T02:01:32.562Z,22.8
2017-10-15T02:02:41.545Z,22.83
2017-10-15T02:03:50.526Z,22.83
2017-10-15T02:04:59.513Z,22.82
2017-10-15T02:06:08.827Z,22.8
2017-10-15T02:07:18.132Z,22.82
2017-10-15T02:08:26.797Z,22.82
2017-10-15T02:09:36.430Z,22.77
2017-10-15T02:10:45.732Z,22.8
2017-10-15T02:11:54.464Z,22.83
2017-10-15T02:13:03.438Z,22.79
2017-10-15T02:14:12.477Z,22.76
2017-10-15T02:15:21.146Z,22.8
2017-10-15T02:16:30.479Z,22.86
2017-10-15T02:17:39.505Z,22.86
2017-10-15T02:18:48.493Z,22.83
2017-10-15T02:19:57.803Z,22.82
2017-10-15T02:21:07.443Z,22.77
2017-10-15T02:22:16.423Z,22.82
2017-10-15T02:23:25.081Z,22.85
2017-10-15T02:24:34.395Z,22.77
2017-10-15T02:25:43.834Z,22.83
2017-10-15T02:26:52.803Z,22.8
2017-10-15T02:28:02.101Z,22.86
2017-10-15T02:29:11.407Z,22.83
2017-10-15T02:30:20.725Z,22.79
2017-10-15T02:31:29.363Z,22.82
2017-10-15T02:32:38.385Z,22.79
2017-10-15T02:33:47.708Z,22.86
2017-10-15T02:34:56.362Z,22.8
2017-10-15T02:36:05.023Z,22.83
2017-10-15T02:37:14.373Z,22.8
2017-10-15T02:38:23.036Z,22.79
2017-10-15T02:39:32.057Z,22.82
2017-10-15T02:40:41.356Z,22.79
2017-10-15T02:41:50.664Z,22.77
2017-10-15T02:43:00.422Z,22.82
2017-10-15T02:44:09.402Z,22.83
2017-10-15T02:45:18.056Z,22.72
2017-10-15T02:46:27.048Z,22.82
2017-10-15T02:47:36.382Z,22.77
2017-10-15T02:48:46.023Z,22.76
2017-10-15T02:49:55.329Z,22.76
2017-10-15T02:51:04.004Z,22.82
2017-10-15T02:52:13.631Z,22.77
2017-10-15T02:53:22.627Z,22.76
2017-10-15T02:54:32.264Z,22.76
2017-10-15T02:55:41.904Z,22.75
2017-10-15T02:56:50.555Z,22.75
2017-10-15T02:57:59.561Z,22.79
2017-10-15T02:59:09.529Z,22.79
2017-10-15T03:00:18.537Z,22.68
2017-10-15T03:01:27.183Z,22.76
2017-10-15T03:02:36.158Z,22.79
2017-10-15T03:03:45.471Z,22.75
2017-10-15T03:04:54.458Z,22.72
2017-10-15T03:06:03.230Z,22.75
2017-10-15T03:07:12.209Z,22.64
2017-10-15T03:08:21.194Z,22.7
2017-10-15T03:09:30.204Z,22.7
2017-10-15T03:10:39.526Z,22.67
2017-10-15T03:11:48.967Z,22.72
2017-10-15T03:12:58.596Z,22.76
2017-10-15T03:14:07.588Z,22.75
2017-10-15T03:15:16.593Z,22.77
2017-10-15T03:16:25.900Z,22.79
2017-10-15T03:17:34.892Z,22.73
2017-10-15T03:18:43.882Z,22.79
2017-10-15T03:19:52.885Z,22.72
2017-10-15T03:21:01.544Z,22.73
2017-10-15T03:22:10.527Z,22.75
2017-10-15T03:23:20.293Z,22.7
2017-10-15T03:24:28.928Z,22.73
2017-10-15T03:25:38.570Z,22.72
2017-10-15T03:26:47.877Z,22.7
2017-10-15T03:27:56.860Z,22.75
2017-10-15T03:29:05.863Z,22.75
2017-10-15T03:30:15.841Z,22.72
2017-10-15T03:31:25.202Z,22.77
2017-10-15T03:32:34.515Z,22.75
2017-10-15T03:33:43.166Z,22.64
2017-10-15T03:34:52.164Z,22.67
2017-10-15T03:36:02.132Z,22.64
2017-10-15T03:37:11.119Z,22.7
2017-10-15T03:38:20.435Z,22.65
2017-10-15T03:39:29.112Z,22.7
2017-10-15T03:40:38.095Z,22.7
2017-10-15T03:41:47.408Z,22.7
2017-10-15T03:42:56.411Z,22.7
2017-10-15T03:44:05.478Z,22.73
2017-10-15T03:45:14.127Z,22.65
2017-10-15T03:46:23.110Z,22.7
2017-10-15T03:47:32.407Z,22.67
2017-10-15T03:48:41.732Z,22.7
2017-10-15T03:49:51.395Z,22.72
2017-10-15T03:51:00.708Z,22.64
2017-10-15T03:52:09.716Z,22.62
2017-10-15T03:53:19.001Z,22.73
2017-10-15T03:54:28.025Z,22.6
2017-10-15T03:55:36.678Z,22.68
2017-10-15T03:56:46.636Z,22.7
2017-10-15T03:57:55.622Z,22.72
2017-10-15T03:59:04.614Z,22.7
2017-10-15T04:00:13.602Z,22.72
2017-10-15T04:01:22.264Z,22.65
2017-10-15T04:02:31.576Z,22.64
2017-10-15T04:03:40.558Z,22.72
2017-10-15T04:04:49.548Z,22.72
2017-10-15T04:05:58.864Z,22.68
2017-10-15T04:07:07.865Z,22.65
2017-10-15T04:08:17.504Z,22.64
2017-10-15T04:09:26.487Z,22.58
2017-10-15T04:10:35.150Z,22.62
2017-10-15T04:11:44.485Z,22.61
2017-10-15T04:12:53.804Z,22.67
2017-10-15T04:14:02.773Z,22.57
2017-10-15T04:15:11.875Z,22.73
2017-10-15T04:16:21.196Z,22.58
2017-10-15T04:17:29.877Z,22.61
2017-10-15T04:18:38.530Z,22.57
2017-10-15T04:19:47.875Z,22.65
2017-10-15T04:20:57.180Z,22.65
2017-10-15T04:22:06.182Z,22.61
2017-10-15T04:23:14.837Z,22.65
2017-10-15T04:24:23.497Z,22.57
2017-10-15T04:25:32.799Z,22.6
2017-10-15T04:26:42.539Z,22.55
2017-10-15T04:27:51.843Z,22.61
2017-10-15T04:29:00.822Z,22.58
2017-10-15T04:30:09.810Z,22.58
2017-10-15T04:31:19.120Z,22.61
2017-10-15T04:32:28.756Z,22.55
2017-10-15T04:33:38.061Z,22.55
2017-10-15T04:34:47.705Z,22.57
2017-10-15T04:35:56.439Z,22.67
2017-10-15T04:37:05.095Z,22.61
2017-10-15T04:38:14.099Z,22.57
2017-10-15T04:39:22.758Z,22.57
2017-10-15T04:40:31.415Z,22.58
2017-10-15T04:41:41.042Z,22.62
2017-10-15T04:42:50.053Z,22.58
2017-10-15T04:43:59.365Z,22.6
2017-10-15T04:45:09.024Z,22.61
2017-10-15T04:46:18.343Z,22.55
2017-10-15T04:47:27.340Z,22.58
2017-10-15T04:48:36.329Z,22.57
2017-10-15T04:49:44.990Z,22.58
2017-10-15T04:50:53.974Z,22.6
2017-10-15T04:52:02.958Z,22.68
2017-10-15T04:53:11.940Z,22.61
2017-10-15T04:54:20.938Z,22.61
2017-10-15T04:55:30.251Z,22.61
2017-10-15T04:56:38.902Z,22.58
2017-10-15T04:57:47.555Z,22.62
2017-10-15T04:58:56.210Z,22.58
2017-10-15T05:00:05.518Z,22.61
2017-10-15T05:01:14.179Z,22.57
2017-10-15T05:02:23.231Z,22.57
2017-10-15T05:03:32.864Z,22.72
2017-10-15T05:04:41.842Z,22.57
2017-10-15T05:05:51.160Z,22.58
2017-10-15T05:07:01.145Z,22.62
2017-10-15T05:08:10.159Z,22.6
2017-10-15T05:09:19.807Z,22.6
2017-10-15T05:10:29.109Z,22.7
2017-10-15T05:11:38.406Z,22.68
2017-10-15T05:12:47.413Z,22.57
2017-10-15T05:13:56.397Z,22.6
2017-10-15T05:15:05.406Z,22.6
2017-10-15T05:16:14.389Z,22.58
2017-10-15T05:17:23.388Z,22.57
2017-10-15T05:18:32.366Z,22.52
2017-10-15T05:19:41.359Z,22.58
2017-10-15T05:20:50.340Z,22.55
2017-10-15T05:21:59.314Z,22.62
2017-10-15T05:23:08.293Z,22.58
2017-10-15T05:24:16.962Z,22.67
2017-10-15T05:25:26.268Z,22.57
2017-10-15T05:26:35.254Z,22.55
2017-10-15T05:27:44.572Z,22.58
2017-10-15T05:28:53.886Z,22.58
2017-10-15T05:30:03.299Z,22.61
2017-10-15T05:31:12.617Z,22.6
2017-10-15T05:32:21.613Z,22.67
2017-10-15T05:33:30.601Z,22.6
2017-10-15T05:34:40.574Z,22.64
2017-10-15T05:35:49.257Z,22.67
2017-10-15T05:36:58.566Z,22.68
2017-10-15T05:38:07.569Z,22.55
2017-10-15T05:39:17.249Z,22.61
2017-10-15T05:40:26.592Z,22.64
2017-10-15T05:41:35.899Z,22.52
2017-10-15T05:42:45.228Z,22.64
2017-10-15T05:43:53.899Z,22.65
2017-10-15T05:45:02.890Z,22.55
2017-10-15T05:46:11.873Z,22.62
2017-10-15T05:47:20.844Z,22.6
2017-10-15T05:48:30.147Z,22.68
2017-10-15T05:49:38.793Z,22.64
2017-10-15T05:50:47.471Z,22.54
2017-10-15T05:51:56.466Z,22.55
2017-10-15T05:53:05.769Z,22.55
2017-10-15T05:54:14.415Z,22.64
2017-10-15T05:55:23.722Z,22.58
2017-10-15T05:56:33.054Z,22.62
2017-10-15T05:57:42.046Z,22.58
2017-10-15T05:58:51.027Z,22.52
2017-10-15T05:59:59.692Z,22.6
2017-10-15T06:01:08.683Z,22.61
2017-10-15T06:02:17.663Z,22.55
2017-10-15T06:03:26.664Z,22.61
2017-10-15T06:04:36.072Z,22.57
2017-10-15T06:05:44.755Z,22.65
2017-10-15T06:06:54.725Z,22.62
2017-10-15T06:08:04.047Z,22.55
2017-10-15T06:09:13.022Z,22.52
2017-10-15T06:10:22.024Z,22.6
2017-10-15T06:11:31.338Z,22.61
2017-10-15T06:12:40.674Z,22.64
2017-10-15T06:13:49.653Z,22.7
2017-10-15T06:14:59.285Z,22.67
2017-10-15T06:16:08.607Z,22.68
2017-10-15T06:17:17.279Z,22.57
2017-10-15T06:18:26.364Z,22.55
2017-10-15T06:19:35.028Z,22.67
2017-10-15T06:20:45.035Z,22.57
2017-10-15T06:21:54.023Z,22.64
2017-10-15T06:23:03.393Z,22.68
2017-10-15T06:24:12.362Z,22.67
2017-10-15T06:25:21.668Z,22.57
2017-10-15T06:26:30.314Z,22.57
2017-10-15T06:27:39.696Z,22.57
2017-10-15T06:28:48.691Z,22.57
2017-10-15T06:29:57.371Z,22.65
2017-10-15T06:31:07.013Z,22.62
2017-10-15T06:32:16.316Z,22.58
2017-10-15T06:33:24.996Z,22.6
2017-10-15T06:34:34.410Z,22.61
2017-10-15T06:35:44.395Z,22.57
2017-10-15T06:36:53.060Z,22.64
2017-10-15T06:38:02.409Z,22.6
2017-10-15T06:39:11.710Z,22.7
2017-10-15T06:40:20.714Z,22.7
2017-10-15T06:41:29.696Z,22.72
2017-10-15T06:42:38.686Z,22.6
2017-10-15T06:43:47.996Z,22.6
2017-10-15T06:44:57.059Z,22.6
2017-10-15T06:46:06.683Z,22.58
2017-10-15T06:47:16.000Z,22.57
2017-10-15T06:48:25.448Z,22.58
2017-10-15T06:49:34.852Z,22.6
2017-10-15T06:50:43.898Z,22.73
2017-10-15T06:51:52.963Z,22.72
2017-10-15T06:53:01.971Z,22.68
2017-10-15T06:54:11.446Z,22.61
2017-10-15T06:55:20.907Z,22.65
2017-10-15T06:56:30.218Z,22.65
2017-10-15T06:57:39.204Z,22.73
2017-10-15T06:58:48.876Z,22.72
2017-10-15T06:59:59.846Z,22.7
2017-10-15T07:01:10.269Z,22.72
2017-10-15T07:02:19.748Z,22.68
2017-10-15T07:03:29.335Z,22.73
2017-10-15T07:04:38.389Z,22.73
2017-10-15T07:05:47.382Z,22.72
2017-10-15T07:06:56.386Z,22.68
2017-10-15T07:08:05.474Z,22.76
2017-10-15T07:09:14.499Z,22.7
2017-10-15T07:10:24.136Z,22.65
2017-10-15T07:11:33.155Z,22.68
2017-10-15T07:12:41.974Z,22.68
2017-10-15T07:13:51.304Z,22.72
2017-10-15T07:14:59.983Z,22.7
2017-10-15T07:16:09.857Z,22.67
2017-10-15T07:17:19.238Z,22.7
2017-10-15T07:18:28.567Z,22.72
2017-10-15T07:19:37.224Z,22.73
2017-10-15T07:20:46.526Z,22.65
2017-10-15T07:21:55.195Z,22.75
2017-10-15T07:23:04.205Z,22.65
2017-10-15T07:24:13.190Z,22.7
2017-10-15T07:25:22.511Z,22.67
2017-10-15T07:26:31.508Z,22.73
2017-10-15T07:27:40.837Z,22.68
2017-10-15T07:28:49.491Z,22.76
2017-10-15T07:29:59.486Z,22.7
2017-10-15T07:31:08.821Z,22.75
2017-10-15T07:32:18.484Z,22.68
2017-10-15T07:33:27.469Z,22.76
2017-10-15T07:34:36.463Z,22.7
2017-10-15T07:35:45.462Z,22.72
2017-10-15T07:36:55.108Z,22.73
2017-10-15T07:38:04.088Z,22.7
2017-10-15T07:39:13.404Z,22.77
2017-10-15T07:40:22.394Z,22.83
2017-10-15T07:41:31.380Z,22.67
2017-10-15T07:42:40.812Z,22.76
2017-10-15T07:43:49.820Z,22.79
2017-10-15T07:44:59.564Z,22.73
2017-10-15T07:46:08.262Z,22.75
2017-10-15T07:47:16.977Z,22.77
2017-10-15T07:48:26.644Z,22.9
2017-10-15T07:49:35.627Z,22.8
2017-10-15T07:50:44.613Z,22.73
2017-10-15T07:51:53.594Z,22.77
2017-10-15T07:53:02.580Z,22.83
2017-10-15T07:54:11.880Z,22.82
2017-10-15T07:55:21.240Z,22.8
2017-10-15T07:56:30.317Z,22.83
2017-10-15T07:57:39.952Z,22.8
2017-10-15T07:58:49.291Z,22.83
2017-10-15T07:59:57.957Z,22.85
2017-10-15T08:01:07.007Z,22.79
2017-10-15T08:02:16.328Z,22.88
2017-10-15T08:03:25.339Z,22.82
2017-10-15T08:04:34.375Z,22.9
2017-10-15T08:05:43.043Z,22.86
2017-10-15T08:06:52.709Z,22.9
2017-10-15T08:08:02.045Z,22.9
2017-10-15T08:09:11.035Z,22.86
2017-10-15T08:10:20.034Z,22.98
2017-10-15T08:11:29.021Z,22.95
2017-10-15T08:12:38.371Z,22.94
2017-10-15T08:13:47.366Z,22.98
2017-10-15T08:14:57.014Z,22.98
2017-10-15T08:16:06.022Z,23.05
2017-10-15T08:17:15.695Z,23.05
2017-10-15T08:18:25.042Z,23.09
2017-10-15T08:19:33.691Z,23.12
2017-10-15T08:20:43.067Z,23.05
2017-10-15T08:21:52.420Z,23.13
2017-10-15T08:23:01.401Z,23.19
2017-10-15T08:24:23.458Z,23.22
2017-10-15T08:25:32.785Z,23.25
2017-10-15T08:26:41.771Z,23.16
2017-10-15T08:27:51.098Z,23.27
2017-10-15T08:29:00.093Z,23.33
2017-10-15T08:30:09.746Z,23.31
2017-10-15T08:31:18.745Z,23.27
2017-10-15T08:32:27.770Z,23.4
2017-10-15T08:33:36.778Z,23.33
2017-10-15T08:34:45.773Z,23.36
2017-10-15T08:35:54.767Z,23.36
2017-10-15T08:37:04.076Z,23.43
2017-10-15T08:38:13.391Z,23.48
2017-10-15T08:39:22.756Z,23.47
2017-10-15T08:40:31.422Z,23.42
2017-10-15T08:41:40.784Z,23.43
2017-10-15T08:42:49.873Z,23.48
2017-10-15T08:43:59.520Z,23.46
2017-10-15T08:45:08.830Z,23.51
2017-10-15T08:46:17.819Z,23.53
2017-10-15T08:47:26.820Z,23.53
2017-10-15T08:48:36.144Z,23.54
2017-10-15T08:49:45.507Z,23.55
2017-10-15T08:50:54.840Z,23.55
2017-10-15T08:52:03.826Z,23.54
2017-10-15T08:53:12.861Z,23.55
2017-10-15T08:54:21.521Z,23.53
2017-10-15T08:55:31.142Z,23.55
2017-10-15T08:56:40.849Z,23.61
2017-10-15T08:57:50.533Z,23.55
2017-10-15T08:58:59.848Z,23.61
2017-10-15T09:00:09.202Z,23.55
2017-10-15T09:01:18.526Z,23.53
2017-10-15T09:02:27.199Z,23.4
2017-10-15T09:03:35.869Z,23.39
2017-10-15T09:04:44.538Z,23.23
2017-10-15T09:05:53.864Z,23.2
2017-10-15T09:07:02.514Z,23.05
2017-10-15T09:08:11.674Z,23
2017-10-15T09:09:20.543Z,22.86
2017-10-15T09:10:30.329Z,22.79
2017-10-15T09:11:39.382Z,22.7
2017-10-15T09:12:49.034Z,22.58
2017-10-15T09:13:58.048Z,22.64
2017-10-15T09:15:07.061Z,22.61
2017-10-15T09:16:16.044Z,22.55
2017-10-15T09:17:25.692Z,22.4
2017-10-15T09:18:35.029Z,22.45
2017-10-15T09:19:44.373Z,22.4
2017-10-15T09:20:54.036Z,22.31
2017-10-15T09:22:03.428Z,22.25
2017-10-15T09:23:12.849Z,22.21
2017-10-15T09:24:22.192Z,22.2
2017-10-15T09:25:31.224Z,22.07
2017-10-15T09:26:40.551Z,21.94
2017-10-15T09:27:49.251Z,21.94
2017-10-15T09:28:57.902Z,21.98
2017-10-15T09:30:06.580Z,21.92
2017-10-15T09:31:15.314Z,21.74
2017-10-15T09:32:24.635Z,21.77
2017-10-15T09:33:33.734Z,21.79
2017-10-15T09:34:42.459Z,21.79
2017-10-15T09:35:51.128Z,21.74
2017-10-15T09:36:59.805Z,21.74
2017-10-15T09:38:09.112Z,21.72
2017-10-15T09:39:17.763Z,21.8
2017-10-15T09:40:27.095Z,21.71
2017-10-15T09:41:35.784Z,21.68
2017-10-15T09:42:44.794Z,21.68
2017-10-15T09:43:53.468Z,21.67
2017-10-15T09:45:02.477Z,21.65
2017-10-15T09:46:12.137Z,21.64
2017-10-15T09:47:21.129Z,21.64
2017-10-15T09:48:30.558Z,21.65
2017-10-15T09:49:39.563Z,21.65
2017-10-15T09:50:48.871Z,21.67
2017-10-15T09:51:57.875Z,21.65
2017-10-15T09:53:06.884Z,21.72
2017-10-15T09:54:15.554Z,21.68
2017-10-15T09:55:24.857Z,21.72
2017-10-15T09:56:34.181Z,21.72
2017-10-15T09:57:43.195Z,21.71
2017-10-15T09:58:52.253Z,21.71
2017-10-15T10:00:00.932Z,21.71
2017-10-15T10:01:09.923Z,21.72
2017-10-15T10:02:18.585Z,21.83
2017-10-15T10:03:27.577Z,21.82
2017-10-15T10:04:36.551Z,21.94
2017-10-15T10:05:45.268Z,21.96
2017-10-15T10:06:53.958Z,21.98
2017-10-15T10:08:03.303Z,22
2017-10-15T10:09:12.315Z,22.03
2017-10-15T10:10:20.991Z,22.2
2017-10-15T10:11:30.665Z,22.2
2017-10-15T10:12:39.332Z,22.3
2017-10-15T10:13:48.029Z,22.31
2017-10-15T10:14:57.676Z,22.39
2017-10-15T10:16:06.665Z,22.45
2017-10-15T10:17:15.775Z,22.55
2017-10-15T10:18:24.430Z,22.55
2017-10-15T10:19:33.426Z,22.55
2017-10-15T10:20:42.410Z,22.61
2017-10-15T10:21:51.453Z,22.58
2017-10-15T10:23:01.547Z,22.57
2017-10-15T10:24:10.874Z,22.64
2017-10-15T10:25:19.857Z,22.68
2017-10-15T10:26:29.172Z,22.72
2017-10-15T10:27:37.848Z,22.77
2017-10-15T10:28:47.558Z,22.82
2017-10-15T10:29:57.220Z,22.76
2017-10-15T10:31:06.206Z,22.83
2017-10-15T10:32:15.918Z,22.79
2017-10-15T10:33:24.916Z,22.9
2017-10-15T10:34:34.003Z,22.88
2017-10-15T10:35:43.229Z,22.88
2017-10-15T10:36:51.915Z,22.95
2017-10-15T10:38:01.243Z,22.92
2017-10-15T10:39:09.906Z,22.98
2017-10-15T10:40:18.908Z,22.95
2017-10-15T10:41:27.572Z,22.97
2017-10-15T10:42:36.226Z,23
2017-10-15T10:43:44.908Z,23
2017-10-15T10:44:53.573Z,23.01
2017-10-15T10:46:02.261Z,23.01
2017-10-15T10:47:10.919Z,23.05
2017-10-15T10:48:19.916Z,23.05
2017-10-15T10:49:29.625Z,23.13
2017-10-15T10:50:38.957Z,23.01
2017-10-15T10:51:48.309Z,23.04
2017-10-15T10:52:56.993Z,23.09
2017-10-15T10:54:05.708Z,23.07
2017-10-15T10:55:15.011Z,23.15
2017-10-15T10:56:23.652Z,23.15
2017-10-15T10:57:32.665Z,23.17
2017-10-15T10:58:41.660Z,23.15
2017-10-15T10:59:51.298Z,23.13
2017-10-15T11:01:00.660Z,23.19
2017-10-15T11:02:10.299Z,23.15
2017-10-15T11:03:19.657Z,23.15
2017-10-15T11:04:28.633Z,23.17
2017-10-15T11:05:37.943Z,23.19
2017-10-15T11:06:47.257Z,23.23
2017-10-15T11:07:56.585Z,23.25
2017-10-15T11:09:05.900Z,23.28
2017-10-15T11:10:14.886Z,23.15
2017-10-15T11:11:23.549Z,23.13
2017-10-15T11:12:32.880Z,23.27
2017-10-15T11:13:42.196Z,23.27
2017-10-15T11:14:51.191Z,23.25
2017-10-15T11:15:59.915Z,23.2
2017-10-15T11:17:08.590Z,23.25
2017-10-15T11:18:17.232Z,23.27
2017-10-15T11:19:26.539Z,23.28
2017-10-15T11:20:35.654Z,23.28
2017-10-15T11:21:44.639Z,23.28
2017-10-15T11:22:53.633Z,23.25
2017-10-15T11:24:02.287Z,23.27
2017-10-15T11:25:11.921Z,23.22
2017-10-15T11:26:20.922Z,23.19
2017-10-15T11:27:29.901Z,23.27
2017-10-15T11:28:38.877Z,23.28
2017-10-15T11:29:47.533Z,23.28
2017-10-15T11:30:56.552Z,23.33
2017-10-15T11:32:05.539Z,23.33
2017-10-15T11:33:14.202Z,23.28
2017-10-15T11:34:22.862Z,23.25
2017-10-15T11:35:31.833Z,23.39
2017-10-15T11:36:40.823Z,23.36
2017-10-15T11:37:49.481Z,23.39
2017-10-15T11:38:58.453Z,23.23
2017-10-15T11:40:07.797Z,23.39
2017-10-15T11:41:16.868Z,23.33
2017-10-15T11:42:25.878Z,23.38
2017-10-15T11:43:34.645Z,23.4
2017-10-15T11:44:43.305Z,23.35
2017-10-15T11:45:51.966Z,23.35
2017-10-15T11:47:01.921Z,23.4
2017-10-15T11:48:10.564Z,23.33
2017-10-15T11:49:19.231Z,23.38
2017-10-15T11:50:28.221Z,23.39
2017-10-15T11:51:37.562Z,23.32
2017-10-15T11:52:46.563Z,23.35
2017-10-15T11:53:55.242Z,23.33
2017-10-15T11:55:04.613Z,23.38
2017-10-15T11:56:13.929Z,23.38
2017-10-15T11:57:22.584Z,23.38
2017-10-15T11:58:32.224Z,23.38
2017-10-15T11:59:41.541Z,23.35
2017-10-15T12:00:50.950Z,23.36
2017-10-15T12:01:59.606Z,23.36
2017-10-15T12:03:08.264Z,23.36
2017-10-15T12:04:17.594Z,23.35
2017-10-15T12:05:26.258Z,23.35
2017-10-15T12:06:35.274Z,23.35
2017-10-15T12:07:44.598Z,23.43
2017-10-15T12:08:53.598Z,23.38
2017-10-15T12:10:02.371Z,23.42
2017-10-15T12:11:11.705Z,23.42
2017-10-15T12:12:20.411Z,23.39
2017-10-15T12:13:29.738Z,23.42
2017-10-15T12:14:39.719Z,23.43
2017-10-15T12:15:48.382Z,23.43
2017-10-15T12:16:57.024Z,23.39
2017-10-15T12:18:05.702Z,23.5
2017-10-15T12:19:14.368Z,23.43
2017-10-15T12:20:23.682Z,23.48
2017-10-15T12:21:32.331Z,23.42
2017-10-15T12:22:41.367Z,23.43
2017-10-15T12:23:50.712Z,23.39
2017-10-15T12:24:59.705Z,23.42
2017-10-15T12:26:09.039Z,23.42
2017-10-15T12:27:18.691Z,23.39
2017-10-15T12:28:28.355Z,23.42
2017-10-15T12:29:37.012Z,23.5
2017-10-15T12:30:46.661Z,23.42
2017-10-15T12:31:55.684Z,23.4
2017-10-15T12:33:04.696Z,23.46
2017-10-15T12:34:14.354Z,23.5
2017-10-15T12:35:23.366Z,23.43
2017-10-15T12:36:32.025Z,23.4
2017-10-15T12:37:41.009Z,23.4
2017-10-15T12:38:49.735Z,23.48
2017-10-15T12:39:58.790Z,23.5
2017-10-15T12:41:08.129Z,23.46
2017-10-15T12:42:17.473Z,23.5
2017-10-15T12:43:26.506Z,23.46
2017-10-15T12:44:35.209Z,23.48
2017-10-15T12:45:44.190Z,23.48
2017-10-15T12:46:53.225Z,23.5
2017-10-15T12:48:02.230Z,23.5
2017-10-15T12:49:11.556Z,23.42
2017-10-15T12:50:20.220Z,23.51
2017-10-15T12:51:29.540Z,23.53
2017-10-15T12:52:38.574Z,23.53
2017-10-15T12:53:47.277Z,23.53
2017-10-15T12:54:55.924Z,23.5
2017-10-15T12:56:04.605Z,23.5
2017-10-15T12:57:13.600Z,23.54
2017-10-15T12:58:22.927Z,23.42
2017-10-15T12:59:31.952Z,23.5
2017-10-15T13:00:40.962Z,23.53
2017-10-15T13:01:49.617Z,23.5
2017-10-15T13:02:58.949Z,23.5
2017-10-15T13:04:07.939Z,23.48
2017-10-15T13:05:16.625Z,23.53
2017-10-15T13:06:25.356Z,23.51
2017-10-15T13:07:34.019Z,23.57
2017-10-15T13:08:43.007Z,23.53
2017-10-15T13:09:52.338Z,23.53
2017-10-15T13:11:01.680Z,23.46
2017-10-15T13:12:11.008Z,23.51
2017-10-15T13:13:20.345Z,23.53
2017-10-15T13:14:29.340Z,23.51
2017-10-15T13:15:38.338Z,23.53
2017-10-15T13:16:47.338Z,23.48
2017-10-15T13:17:56.328Z,23.53
2017-10-15T13:19:04.994Z,23.57
2017-10-15T13:20:13.982Z,23.51
2017-10-15T13:21:23.312Z,23.51
2017-10-15T13:22:32.313Z,23.57
2017-10-15T13:23:41.318Z,23.54
2017-10-15T13:24:50.015Z,23.57
2017-10-15T13:25:59.377Z,23.54
2017-10-15T13:27:08.196Z,23.58
2017-10-15T13:28:17.213Z,23.5
2017-10-15T13:29:26.576Z,23.57
2017-10-15T13:30:35.285Z,23.5
2017-10-15T13:31:44.603Z,23.51
2017-10-15T13:32:53.689Z,23.51
2017-10-15T13:34:02.708Z,23.54
2017-10-15T13:35:12.115Z,23.53
2017-10-15T13:36:21.164Z,23.6
2017-10-15T13:37:30.584Z,23.53
2017-10-15T13:38:40.713Z,23.57
2017-10-15T13:39:49.448Z,23.55
2017-10-15T13:40:58.506Z,23.54
2017-10-15T13:42:07.522Z,23.55
2017-10-15T13:43:16.524Z,23.61
2017-10-15T13:44:26.863Z,23.58
2017-10-15T13:45:35.932Z,23.55
2017-10-15T13:46:44.959Z,23.55
2017-10-15T13:47:53.673Z,23.57
2017-10-15T13:49:02.380Z,23.55
2017-10-15T13:50:11.703Z,23.58
2017-10-15T13:51:20.404Z,23.61
2017-10-15T13:52:29.443Z,23.63
2017-10-15T13:53:38.449Z,23.61
2017-10-15T13:54:48.173Z,23.66
2017-10-15T13:55:57.514Z,23.63
2017-10-15T13:57:06.499Z,23.57
2017-10-15T13:58:15.518Z,23.6
2017-10-15T13:59:24.523Z,23.65
2017-10-15T14:00:34.186Z,23.57
2017-10-15T14:01:43.225Z,23.53
2017-10-15T14:02:52.252Z,23.63
2017-10-15T14:04:01.570Z,23.61
2017-10-15T14:05:10.587Z,23.54
2017-10-15T14:06:19.582Z,23.54
2017-10-15T14:07:28.589Z,23.53
2017-10-15T14:08:37.251Z,23.63
2017-10-15T14:09:46.601Z,23.61
2017-10-15T14:10:55.360Z,23.61
2017-10-15T14:12:04.409Z,23.6
2017-10-15T14:13:13.761Z,23.54
2017-10-15T14:14:23.448Z,23.58
2017-10-15T14:15:32.448Z,23.6
2017-10-15T14:16:41.428Z,23.69
2017-10-15T14:17:50.089Z,23.53
2017-10-15T14:18:59.088Z,23.63
2017-10-15T14:20:08.095Z,23.66
2017-10-15T14:21:17.117Z,23.54
2017-10-15T14:22:26.163Z,23.61
2017-10-15T14:23:35.520Z,23.6
2017-10-15T14:24:44.893Z,23.57
2017-10-15T14:25:53.607Z,23.66
2017-10-15T14:27:02.922Z,23.61
2017-10-15T14:28:11.945Z,23.68
2017-10-15T14:29:20.947Z,23.61
2017-10-15T14:30:29.710Z,23.68
2017-10-15T14:31:38.714Z,23.66
2017-10-15T14:32:47.722Z,23.61
2017-10-15T14:33:56.712Z,23.6
2017-10-15T14:35:06.064Z,23.6
2017-10-15T14:36:15.170Z,23.61
2017-10-15T14:37:24.190Z,23.63
2017-10-15T14:38:33.173Z,23.6
2017-10-15T14:39:42.518Z,23.61
2017-10-15T14:40:51.230Z,23.66
2017-10-15T14:42:00.246Z,23.6
2017-10-15T14:43:09.243Z,23.63
2017-10-15T14:44:18.310Z,23.66
2017-10-15T14:45:27.010Z,23.66
2017-10-15T14:46:36.034Z,23.68
2017-10-15T14:47:45.107Z,23.69
2017-10-15T14:48:53.793Z,23.69
2017-10-15T14:50:03.113Z,23.61
2017-10-15T14:51:11.786Z,23.69
2017-10-15T14:52:21.131Z,23.73
2017-10-15T14:53:30.126Z,23.72
2017-10-15T14:54:39.139Z,23.7
2017-10-15T14:55:48.521Z,23.75